createdAt,value
2023-03-10T00:04:15.916Z,7.70
2023-03-10T00:09:20.666Z,7.60
2023-03-10T00:14:24.030Z,7.60
2023-03-10T00:19:27.633Z,7.50
2023-03-10T00:24:32.360Z,7.50
2023-03-10T00:29:36.024Z,7.40
2023-03-10T00:34:39.385Z,7.40
2023-03-10T00:39:44.342Z,7.30
2023-03-10T00:44:48.626Z,7.30
2023-03-10T00:49:52.180Z,7.30
2023-03-10T00:54:57.085Z,7.30
2023-03-10T01:00:00.782Z,7.30
2023-03-10T01:05:04.257Z,7.30
2023-03-10T01:10:10.304Z,7.30
2023-03-10T01:15:14.439Z,7.20
2023-03-10T01:20:19.006Z,7.20
2023-03-10T01:25:24.060Z,7.10
2023-03-10T01:30:27.753Z,7.10
2023-03-10T01:35:31.821Z,7.10
2023-03-10T01:40:37.162Z,7.10
2023-03-10T01:46:29.736Z,7.00
2023-03-10T01:51:36.921Z,7.00
2023-03-10T01:56:42.830Z,7.10
2023-03-10T02:02:03.145Z,7.10
2023-03-10T02:07:07.876Z,7.00
2023-03-10T02:12:15.198Z,7.10
2023-03-10T02:17:20.573Z,7.10
2023-03-10T02:22:24.312Z,7.30
2023-03-10T02:27:32.382Z,7.50
2023-03-10T02:32:38.433Z,7.60
2023-03-10T02:37:42.272Z,7.80
2023-03-10T02:42:46.960Z,7.90
2023-03-10T02:47:50.478Z,8.10
2023-03-10T02:53:00.725Z,8.20
2023-03-10T02:58:05.699Z,8.40
2023-03-10T03:03:10.856Z,8.50
2023-03-10T03:08:14.948Z,8.60
2023-03-10T03:13:19.790Z,8.70
2023-03-10T03:18:23.592Z,8.80
2023-03-10T03:23:26.978Z,8.90
2023-03-10T03:28:32.095Z,8.90
2023-03-10T03:33:35.762Z,9.00
2023-03-10T03:38:39.633Z,9.10
2023-03-10T03:43:44.343Z,9.20
2023-03-10T03:48:47.739Z,9.20
2023-03-10T03:53:51.284Z,9.30
2023-03-10T03:58:56.001Z,9.30
2023-03-10T04:03:59.451Z,9.30
2023-03-10T04:09:02.882Z,9.40
2023-03-10T04:14:07.969Z,9.40
2023-03-10T04:19:11.339Z,9.50
2023-03-10T04:24:14.722Z,9.50
2023-03-10T04:29:19.672Z,9.60
2023-03-10T04:34:23.811Z,9.70
2023-03-10T04:39:27.182Z,9.70
2023-03-10T04:44:31.932Z,9.80
2023-03-10T04:49:35.336Z,9.80
2023-03-10T04:54:38.741Z,9.80
2023-03-10T04:59:43.624Z,9.90
2023-03-10T05:04:47.035Z,9.90
2023-03-10T05:09:50.703Z,9.90
2023-03-10T05:14:55.440Z,9.90
2023-03-10T05:19:59.117Z,9.90
2023-03-10T05:25:02.460Z,10.00
2023-03-10T05:30:09.057Z,10.00
2023-03-10T05:35:14.005Z,10.00
2023-03-10T05:40:19.982Z,10.00
2023-03-10T05:45:24.959Z,10.00
2023-03-10T05:50:28.394Z,10.00
2023-03-10T05:55:32.113Z,10.10
2023-03-10T06:00:37.090Z,10.10
2023-03-10T06:05:40.759Z,10.10
2023-03-10T06:10:44.375Z,10.20
2023-03-10T06:15:51.838Z,10.20
2023-03-10T06:20:55.440Z,10.20
2023-03-10T06:25:59.925Z,10.20
2023-03-10T06:31:07.199Z,10.30
2023-03-10T06:36:11.996Z,10.30
2023-03-10T06:41:16.407Z,10.40
2023-03-10T06:46:21.400Z,10.40
2023-03-10T06:51:32.029Z,10.40
2023-03-10T06:56:36.267Z,10.40
2023-03-10T07:01:41.150Z,10.40
2023-03-10T07:06:44.576Z,10.50
2023-03-10T07:11:47.990Z,10.50
2023-03-10T07:16:52.695Z,10.50
2023-03-10T07:21:56.063Z,10.50
2023-03-10T07:27:00.967Z,10.50
2023-03-10T07:32:06.445Z,10.60
2023-03-10T07:37:11.291Z,10.70
2023-03-10T07:42:14.658Z,10.70
2023-03-10T07:47:19.613Z,10.80
2023-03-10T07:52:23.190Z,10.90
2023-03-10T07:57:27.005Z,10.90
2023-03-10T08:02:31.751Z,11.00
2023-03-10T08:07:35.734Z,11.00
2023-03-10T08:12:39.369Z,11.00
2023-03-10T08:17:44.284Z,11.10
2023-03-10T08:22:47.921Z,11.10
2023-03-10T08:27:51.650Z,11.10
2023-03-10T08:32:56.543Z,11.20
2023-03-10T08:38:00.526Z,11.20
2023-03-10T08:43:06.060Z,11.30
2023-03-10T08:48:10.788Z,11.40
2023-03-10T08:53:14.220Z,11.40
2023-03-10T08:58:17.927Z,11.60
2023-03-10T09:03:22.842Z,11.60
2023-03-10T09:08:27.636Z,11.70
2023-03-10T09:13:31.471Z,11.80
2023-03-10T09:18:36.338Z,11.90
2023-03-10T09:23:41.020Z,12.00
2023-03-10T09:28:44.640Z,12.10
2023-03-10T09:33:49.459Z,12.20
2023-03-10T09:38:53.500Z,12.20
2023-03-10T09:44:03.356Z,12.30
2023-03-10T09:49:15.778Z,12.40
2023-03-10T09:54:39.568Z,12.50
2023-03-10T09:59:46.451Z,12.50
2023-03-10T10:04:54.763Z,12.60
2023-03-10T10:10:04.343Z,12.60
2023-03-10T10:15:16.271Z,12.70
2023-03-10T10:20:25.747Z,12.80
2023-03-10T10:25:33.038Z,13.00
2023-03-10T10:30:38.238Z,13.00
2023-03-10T10:35:45.868Z,13.10
2023-03-10T10:40:51.582Z,13.20
2023-03-10T10:45:57.231Z,13.20
2023-03-10T10:51:02.360Z,13.20
2023-03-10T10:56:07.952Z,13.20
2023-03-10T11:01:13.892Z,13.30
2023-03-10T11:06:25.452Z,13.30
2023-03-10T11:11:36.430Z,13.40
2023-03-10T11:16:49.456Z,13.40
2023-03-10T11:21:59.903Z,13.50
2023-03-10T11:27:10.294Z,13.50
2023-03-10T11:32:23.183Z,13.60
2023-03-10T11:37:33.177Z,13.70
2023-03-10T11:42:46.315Z,13.90
2023-03-10T11:48:08.266Z,14.00
2023-03-10T11:53:17.447Z,14.00
2023-03-10T11:58:26.088Z,14.00
2023-03-10T12:03:41.798Z,14.00
2023-03-10T12:08:47.778Z,14.10
2023-03-10T12:13:54.139Z,14.10
2023-03-10T12:18:58.146Z,14.20
2023-03-10T12:24:04.545Z,14.30
2023-03-10T12:29:31.630Z,14.40
2023-03-10T12:34:35.116Z,14.60
2023-03-10T12:39:41.846Z,14.70
2023-03-10T12:44:56.110Z,14.80
2023-03-10T12:50:06.347Z,14.90
2023-03-10T12:55:24.319Z,14.90
2023-03-10T13:00:40.162Z,14.90
2023-03-10T13:05:58.162Z,15.00
2023-03-10T13:11:04.759Z,15.00
2023-03-10T13:16:09.431Z,15.00
2023-03-10T13:21:25.199Z,15.00
2023-03-10T13:26:30.622Z,15.00
2023-03-10T13:31:35.216Z,15.10
2023-03-10T13:36:40.356Z,15.10
2023-03-10T13:41:47.653Z,15.10
2023-03-10T13:46:53.348Z,15.10
2023-03-10T13:51:58.441Z,15.20
2023-03-10T13:57:08.397Z,15.20
2023-03-10T14:02:18.971Z,15.30
2023-03-10T14:07:24.310Z,15.40
2023-03-10T14:12:39.863Z,15.40
2023-03-10T14:17:46.604Z,15.40
2023-03-10T14:22:49.975Z,15.40
2023-03-10T14:27:57.325Z,15.40
2023-03-10T14:33:02.580Z,15.50
2023-03-10T14:38:05.963Z,15.50
2023-03-10T14:43:16.652Z,15.50
2023-03-10T14:48:22.758Z,15.50
2023-03-10T14:53:27.728Z,15.40
2023-03-10T14:58:35.763Z,15.40
2023-03-10T15:03:39.115Z,15.50
2023-03-10T15:08:42.631Z,15.50
2023-03-10T15:13:47.379Z,15.50
2023-03-10T15:18:52.608Z,15.50
2023-03-10T15:23:56.750Z,15.50
2023-03-10T15:29:01.529Z,15.50
2023-03-10T15:34:05.355Z,15.50
2023-03-10T15:39:09.866Z,15.40
2023-03-10T15:44:15.838Z,15.40
2023-03-10T15:49:19.832Z,15.30
2023-03-10T15:54:23.434Z,15.20
2023-03-10T15:59:28.442Z,15.10
2023-03-10T16:04:32.286Z,15.10
2023-03-10T16:09:35.674Z,15.10
2023-03-10T16:14:40.335Z,15.00
2023-03-10T16:19:44.006Z,15.00
2023-03-10T16:24:47.495Z,15.00
2023-03-10T16:29:52.493Z,15.00
2023-03-10T16:34:55.894Z,14.90
2023-03-10T16:39:59.455Z,14.90
2023-03-10T16:45:04.367Z,14.90
2023-03-10T16:50:12.513Z,14.90
2023-03-10T16:55:17.975Z,14.90
2023-03-10T17:00:23.497Z,14.80
2023-03-10T17:05:26.933Z,14.80
2023-03-10T17:10:30.729Z,14.70
2023-03-10T17:15:35.515Z,14.70
2023-03-10T17:20:39.342Z,14.70
2023-03-10T17:25:43.891Z,14.70
2023-03-10T17:30:48.775Z,14.60
2023-03-10T17:35:52.178Z,14.50
2023-03-10T17:40:55.575Z,14.40
2023-03-10T17:46:01.781Z,14.30
2023-03-10T17:51:06.181Z,14.20
2023-03-10T17:56:10.478Z,14.10
2023-03-10T18:01:17.704Z,14.10
2023-03-10T18:06:23.462Z,14.00
2023-03-10T18:11:27.877Z,14.00
2023-03-10T18:16:35.496Z,13.90
2023-03-10T18:21:39.313Z,13.90
2023-03-10T18:26:43.997Z,13.80
2023-03-10T18:31:49.078Z,13.70
2023-03-10T18:36:52.795Z,13.60
2023-03-10T18:41:56.265Z,13.40
2023-03-10T18:47:01.964Z,13.30
2023-03-10T18:52:06.420Z,13.10
2023-03-10T18:57:09.862Z,13.00
2023-03-10T19:02:16.331Z,12.90
2023-03-10T19:07:21.435Z,12.90
2023-03-10T19:12:25.101Z,12.80
2023-03-10T19:17:30.365Z,12.70
2023-03-10T19:22:34.978Z,12.70
2023-03-10T19:27:40.375Z,12.60
2023-03-10T19:32:46.110Z,12.50
2023-03-10T19:37:57.447Z,12.50
2023-03-10T19:43:01.296Z,12.50
2023-03-10T19:48:06.432Z,12.50
2023-03-10T19:53:09.865Z,12.60
2023-03-10T19:58:13.290Z,12.60
2023-03-10T20:03:18.176Z,12.60
2023-03-10T20:08:21.768Z,12.60
2023-03-10T20:13:25.182Z,12.50
2023-03-10T20:18:30.045Z,12.50
2023-03-10T20:23:34.901Z,12.50
2023-03-10T20:28:39.824Z,12.50
2023-03-10T20:33:44.601Z,12.50
2023-03-10T20:38:49.913Z,12.50
2023-03-10T20:43:53.810Z,12.40
2023-03-10T20:48:58.617Z,12.40
2023-03-10T20:54:02.807Z,12.30
2023-03-10T20:59:06.186Z,12.30
2023-03-10T21:04:10.951Z,12.30
2023-03-10T21:09:14.953Z,12.20
2023-03-10T21:14:19.136Z,12.30
2023-03-10T21:19:23.931Z,12.20
2023-03-10T21:24:27.480Z,12.10
2023-03-10T21:29:31.731Z,12.20
2023-03-10T21:34:36.534Z,12.20
2023-03-10T21:39:39.996Z,12.20
2023-03-10T21:44:43.935Z,12.20
2023-03-10T21:49:48.767Z,12.20
2023-03-10T21:54:52.139Z,12.20
2023-03-10T21:59:55.505Z,12.20
2023-03-10T22:05:00.558Z,12.20
2023-03-10T22:10:04.594Z,12.30
2023-03-10T22:15:10.142Z,12.30
2023-03-10T22:20:20.709Z,12.20
2023-03-10T22:25:24.525Z,12.20
2023-03-10T22:30:29.908Z,12.20
2023-03-10T22:35:38.918Z,12.20
2023-03-10T22:40:42.779Z,12.20
2023-03-10T22:45:46.843Z,12.30
2023-03-10T22:50:51.692Z,12.40
2023-03-10T22:55:55.097Z,12.40
2023-03-10T23:00:58.626Z,12.50
2023-03-10T23:06:06.019Z,12.40
2023-03-10T23:11:11.429Z,12.40
2023-03-10T23:16:18.033Z,12.20
2023-03-10T23:21:22.990Z,12.10
2023-03-10T23:26:27.182Z,12.00
2023-03-10T23:31:30.713Z,11.90
2023-03-10T23:36:35.800Z,11.90
2023-03-10T23:41:39.197Z,11.90
2023-03-10T23:46:42.948Z,11.90
2023-03-10T23:51:48.842Z,12.00
2023-03-10T23:56:52.843Z,12.00
